Time;durP1;ratioP1;P1;durP2;ratioP2;P2;SDS_P1;SDS_P2;PMS_P1;PMS_P2;Temp;Humidity;BMP_temperature;BMP_pressure;BME280_temperature;BME280_humidity;BME280_pressure;Samples;Min_cycle;Max_cycle;Signal;HPM_P1;HPM_P2
2023/09/19 00:00:19;;;;;;;;;3.50;2.00;;;;;;;;5086972;27;46483;-81
2023/09/19 00:02:47;;;;;;;;;1.00;0.25;;;;;;;;5094658;27;45596;-80
2023/09/19 00:05:12;;;;;;;;;2.25;1.25;;;;;;;;5092306;27;45547;-80
2023/09/19 00:07:37;;;;;;;;;1.00;1.00;;;;;;;;5103111;27;45747;-81
2023/09/19 00:10:04;;;;;;;;;10.00;10.00;;;;;;;;5096611;27;45510;-80
2023/09/19 00:12:29;;;;;;;;;3.75;1.00;;;;;;;;5096671;27;44781;-80
2023/09/19 00:14:56;;;;;;;;;3.33;3.00;;;;;;;;5108785;27;45493;-80
2023/09/19 00:17:21;;;;;;;;;3.00;3.00;;;;;;;;5109616;27;44742;-80
2023/09/19 00:19:51;;;;;;;;;2.25;1.00;;;;;;;;5108340;27;45199;-80
2023/09/19 00:22:18;;;;;;;;;1.00;0.75;;;;;;;;5094067;27;45376;-79
2023/09/19 00:24:44;;;;;;;;;1.75;0.50;;;;;;;;5096440;27;45308;-81
2023/09/19 00:27:09;;;;;;;;;3.50;1.00;;;;;;;;5092774;27;45013;-81
2023/09/19 00:29:34;;;;;;;;;1.00;1.00;;;;;;;;5048736;27;1298199;-80
2023/09/19 00:32:00;;;;;;;;;1.33;1.00;;;;;;;;5098981;27;45536;-80
2023/09/19 00:34:25;;;;;;;;;0.00;0.00;;;;;;;;5096159;27;44766;-80
2023/09/19 00:36:52;;;;;;;;;2.25;1.00;;;;;;;;5106152;27;45523;-79
2023/09/19 00:39:20;;;;;;;;;3.33;3.33;;;;;;;;5096753;27;47914;-80
2023/09/19 00:41:45;;;;;;;;;2.00;1.00;;;;;;;;5097433;27;45410;-80
2023/09/19 00:44:11;;;;;;;;;3.00;1.25;;;;;;;;5090562;27;45929;-79
2023/09/19 00:46:37;;;;;;;;;2.00;2.00;;;;;;;;5086826;27;45521;-81
2023/09/19 00:49:02;;;;;;;;;3.00;3.00;;;;;;;;5081246;27;47870;-81
2023/09/19 00:51:27;;;;;;;;;5.33;1.00;;;;;;;;5088918;27;45563;-80
2023/09/19 00:53:53;;;;;;;;;2.33;1.33;;;;;;;;5082209;27;46270;-81
2023/09/19 00:56:19;;;;;;;;;4.75;2.50;;;;;;;;5092000;27;45629;-81
2023/09/19 00:58:46;;;;;;;;;2.00;1.00;;;;;;;;5087927;27;48618;-79
2023/09/19 01:01:11;;;;;;;;;5.33;1.33;;;;;;;;5082597;27;45785;-80
2023/09/19 01:03:37;;;;;;;;;5.00;5.00;;;;;;;;5097283;27;45396;-80
2023/09/19 01:06:02;;;;;;;;;5.67;4.00;;;;;;;;5095556;27;45988;-81
2023/09/19 01:08:29;;;;;;;;;2.00;1.00;;;;;;;;5096504;27;45424;-80
2023/09/19 01:11:15;;;;;;;;;4.00;1.00;;;;;;;;5080728;27;45334;-79
2023/09/19 01:13:48;;;;;;;;;4.00;4.00;;;;;;;;5102775;27;45219;-80
2023/09/19 01:16:18;;;;;;;;;3.00;2.00;;;;;;;;5096543;27;45544;-80
2023/09/19 01:18:56;;;;;;;;;2.25;1.00;;;;;;;;5106350;27;45760;-80
2023/09/19 01:21:33;;;;;;;;;3.00;1.50;;;;;;;;5098354;27;45567;-81
2023/09/19 01:24:17;;;;;;;;;0.00;0.00;;;;;;;;5105521;27;44735;-79
2023/09/19 01:27:15;;;;;;;;;2.00;1.00;;;;;;;;5096964;27;45096;-79
2023/09/19 01:29:50;;;;;;;;;2.00;0.33;;;;;;;;5065757;27;45464;-81
2023/09/19 01:32:21;;;;;;;;;2.00;2.00;;;;;;;;5111831;27;44754;-79
2023/09/19 01:34:47;;;;;;;;;2.50;1.00;;;;;;;;5096298;27;45257;-80
2023/09/19 01:37:13;;;;;;;;;2.75;1.00;;;;;;;;5102818;27;45538;-79
2023/09/19 01:39:39;;;;;;;;;2.67;1.33;;;;;;;;5104198;27;46446;-80
2023/09/19 01:42:12;;;;;;;;;1.00;1.00;;;;;;;;5088928;27;45756;-79
2023/09/19 01:44:49;;;;;;;;;3.00;0.50;;;;;;;;5092888;27;45763;-79
2023/09/19 01:47:35;;;;;;;;;4.25;1.50;;;;;;;;5092780;27;46139;-79
2023/09/19 01:50:06;;;;;;;;;1.50;1.00;;;;;;;;5097409;27;45717;-78
2023/09/19 01:52:36;;;;;;;;;2.00;2.00;;;;;;;;5089655;27;46039;-79
2023/09/19 01:55:06;;;;;;;;;1.00;1.00;;;;;;;;5097515;27;45651;-79
2023/09/19 01:57:46;;;;;;;;;2.33;2.00;;;;;;;;5088210;27;45512;-80
2023/09/19 02:00:12;;;;;;;;;2.00;0.67;;;;;;;;5092315;27;46630;-80
2023/09/19 02:02:39;;;;;;;;;5.33;2.67;;;;;;;;5087026;27;45788;-80
2023/09/19 02:05:06;;;;;;;;;2.00;1.00;;;;;;;;5096078;27;45368;-81
2023/09/19 02:07:31;;;;;;;;;1.67;1.67;;;;;;;;5087907;27;45707;-80
2023/09/19 02:09:58;;;;;;;;;2.00;2.00;;;;;;;;5082822;27;46688;-80
2023/09/19 02:12:24;;;;;;;;;2.00;0.67;;;;;;;;5087518;27;45331;-81
2023/09/19 02:14:49;;;;;;;;;1.67;1.00;;;;;;;;5086238;27;45477;-81
2023/09/19 02:17:14;;;;;;;;;2.00;1.00;;;;;;;;5097136;27;45228;-81
2023/09/19 02:19:40;;;;;;;;;2.00;2.00;;;;;;;;5078482;27;46050;-79
2023/09/19 02:22:07;;;;;;;;;0.00;0.00;;;;;;;;5085787;27;45383;-81
2023/09/19 02:24:32;;;;;;;;;2.00;1.33;;;;;;;;5093497;27;45787;-81
2023/09/19 02:26:59;;;;;;;;;3.33;1.00;;;;;;;;5092904;27;45589;-80
2023/09/19 02:29:24;;;;;;;;;0.75;0.75;;;;;;;;5104208;27;45491;-80
2023/09/19 02:31:50;;;;;;;;;1.33;1.33;;;;;;;;5090019;27;45717;-80
2023/09/19 02:34:16;;;;;;;;;1.33;1.00;;;;;;;;5099199;27;45727;-80
2023/09/19 02:36:44;;;;;;;;;2.00;2.00;;;;;;;;5093421;27;45346;-82
2023/09/19 02:39:10;;;;;;;;;1.00;1.00;;;;;;;;5089619;27;45446;-79
2023/09/19 02:41:36;;;;;;;;;5.00;2.00;;;;;;;;5096945;27;45421;-78
2023/09/19 02:44:01;;;;;;;;;1.00;1.00;;;;;;;;5093556;27;45455;-81
2023/09/19 02:46:27;;;;;;;;;2.00;1.67;;;;;;;;5080913;27;46374;-79
2023/09/19 02:48:52;;;;;;;;;1.00;1.00;;;;;;;;5088187;27;45447;-78
2023/09/19 02:51:17;;;;;;;;;1.67;1.67;;;;;;;;5079770;27;46082;-78
2023/09/19 02:53:42;;;;;;;;;3.00;1.33;;;;;;;;5081519;27;45464;-80
2023/09/19 02:56:09;;;;;;;;;0.67;0.33;;;;;;;;5084837;27;45660;-80
2023/09/19 02:58:35;;;;;;;;;2.33;1.00;;;;;;;;5086711;27;45706;-79
2023/09/19 03:01:08;;;;;;;;;3.00;1.00;;;;;;;;5092867;27;45490;-80
2023/09/19 03:03:33;;;;;;;;;0.33;0.33;;;;;;;;5074156;27;45421;-79
2023/09/19 03:05:58;;;;;;;;;0.67;0.67;;;;;;;;5086502;27;45665;-79
2023/09/19 03:08:24;;;;;;;;;0.33;0.33;;;;;;;;5092875;27;46207;-80
2023/09/19 03:10:50;;;;;;;;;2.00;1.33;;;;;;;;5091853;27;45800;-82
2023/09/19 03:13:16;;;;;;;;;1.00;1.00;;;;;;;;5076234;27;45510;-79
2023/09/19 03:15:44;;;;;;;;;1.33;1.33;;;;;;;;5094613;27;45397;-82
2023/09/19 03:18:09;;;;;;;;;2.00;1.00;;;;;;;;5075274;27;47249;-80
2023/09/19 03:20:34;;;;;;;;;4.33;0.00;;;;;;;;5085557;27;45367;-80
2023/09/19 03:23:00;;;;;;;;;6.00;1.00;;;;;;;;5096809;27;45559;-82
2023/09/19 03:25:25;;;;;;;;;0.33;0.33;;;;;;;;5092720;27;45998;-81
2023/09/19 03:27:50;;;;;;;;;2.33;1.33;;;;;;;;5079847;27;45925;-79
2023/09/19 03:30:16;;;;;;;;;2.00;2.00;;;;;;;;5093565;27;45344;-80
2023/09/19 03:32:46;;;;;;;;;4.00;1.33;;;;;;;;5092206;27;45458;-79
2023/09/19 03:35:13;;;;;;;;;2.75;1.00;;;;;;;;5093582;27;45329;-79
2023/09/19 03:37:39;;;;;;;;;2.00;1.00;;;;;;;;5095928;27;45774;-80
2023/09/19 03:40:05;;;;;;;;;1.00;1.00;;;;;;;;5098353;27;45362;-80
2023/09/19 03:42:30;;;;;;;;;1.00;1.00;;;;;;;;5082568;27;45458;-80
2023/09/19 03:44:56;;;;;;;;;2.00;0.33;;;;;;;;5096928;27;45763;-77
2023/09/19 03:47:21;;;;;;;;;4.67;1.00;;;;;;;;5100597;27;45542;-82
2023/09/19 03:49:47;;;;;;;;;5.33;1.00;;;;;;;;5095732;27;45572;-80
2023/09/19 03:52:12;;;;;;;;;4.00;2.00;;;;;;;;5091734;27;45384;-79
2023/09/19 03:54:39;;;;;;;;;1.00;1.00;;;;;;;;5079527;27;45311;-80
2023/09/19 03:57:05;;;;;;;;;2.00;0.33;;;;;;;;5094518;27;46333;-80
2023/09/19 03:59:31;;;;;;;;;2.67;1.00;;;;;;;;5086524;27;46420;-80
2023/09/19 04:01:58;;;;;;;;;4.00;2.00;;;;;;;;5088910;27;45283;-80
2023/09/19 04:04:24;;;;;;;;;2.33;1.67;;;;;;;;5082603;27;45580;-80
2023/09/19 04:06:50;;;;;;;;;1.00;1.00;;;;;;;;5086255;27;47257;-79
2023/09/19 04:09:15;;;;;;;;;3.33;3.00;;;;;;;;5079475;27;45367;-80
2023/09/19 04:11:40;;;;;;;;;2.00;2.00;;;;;;;;5091719;27;45591;-81
2023/09/19 04:14:06;;;;;;;;;3.67;1.00;;;;;;;;5084756;27;45902;-80
2023/09/19 04:16:31;;;;;;;;;2.33;1.00;;;;;;;;5093078;27;45803;-81
2023/09/19 04:18:56;;;;;;;;;3.00;1.00;;;;;;;;5094276;27;45993;-79
2023/09/19 04:21:21;;;;;;;;;1.33;1.00;;;;;;;;5095812;27;45490;-79
2023/09/19 04:23:47;;;;;;;;;3.00;1.00;;;;;;;;5088867;27;45513;-79
2023/09/19 04:26:12;;;;;;;;;1.00;1.00;;;;;;;;5087891;27;45432;-80
2023/09/19 04:28:38;;;;;;;;;3.33;2.00;;;;;;;;5092224;27;45494;-79
2023/09/19 04:31:03;;;;;;;;;1.33;1.00;;;;;;;;5090930;27;45599;-79
2023/09/19 04:33:29;;;;;;;;;2.33;1.00;;;;;;;;5092743;27;45495;-79
2023/09/19 04:35:55;;;;;;;;;1.33;1.33;;;;;;;;5089883;27;45493;-79
2023/09/19 04:38:21;;;;;;;;;4.00;1.00;;;;;;;;5087123;27;45536;-80
2023/09/19 04:40:46;;;;;;;;;3.25;1.00;;;;;;;;5088309;27;45972;-80
2023/09/19 04:43:12;;;;;;;;;4.33;3.67;;;;;;;;5081316;27;45985;-78
2023/09/19 04:45:38;;;;;;;;;1.00;1.00;;;;;;;;5088976;27;46464;-79
2023/09/19 04:48:04;;;;;;;;;3.00;3.00;;;;;;;;5084226;27;45547;-80
2023/09/19 04:50:29;;;;;;;;;1.67;1.00;;;;;;;;5091891;27;45807;-81
2023/09/19 04:52:55;;;;;;;;;4.33;2.00;;;;;;;;5094312;27;45549;-80
2023/09/19 04:55:20;;;;;;;;;1.00;1.00;;;;;;;;5078002;27;47225;-80
2023/09/19 04:57:46;;;;;;;;;4.00;3.00;;;;;;;;5091789;27;46062;-80
2023/09/19 05:00:14;;;;;;;;;2.33;2.33;;;;;;;;5093522;27;45479;-80
2023/09/19 05:02:39;;;;;;;;;3.67;2.00;;;;;;;;5095887;27;45641;-80
2023/09/19 05:05:06;;;;;;;;;3.67;2.67;;;;;;;;5085689;27;47946;-81
2023/09/19 05:07:31;;;;;;;;;2.67;1.00;;;;;;;;5083626;27;45415;-80
2023/09/19 05:09:57;;;;;;;;;2.00;2.00;;;;;;;;5090560;27;45611;-81
2023/09/19 05:12:22;;;;;;;;;1.00;1.00;;;;;;;;5083059;27;46421;-82
2023/09/19 05:14:47;;;;;;;;;2.67;2.67;;;;;;;;5079064;27;45386;-81
2023/09/19 05:17:16;;;;;;;;;3.00;1.00;;;;;;;;5101883;27;45678;-81
2023/09/19 05:19:42;;;;;;;;;4.25;0.50;;;;;;;;5090772;27;45882;-80
2023/09/19 05:22:07;;;;;;;;;2.00;2.00;;;;;;;;5096550;27;46434;-81
2023/09/19 05:24:32;;;;;;;;;2.00;1.00;;;;;;;;5102168;27;45709;-81
2023/09/19 05:26:58;;;;;;;;;2.33;2.00;;;;;;;;5087335;27;45378;-81
2023/09/19 05:29:23;;;;;;;;;2.33;1.67;;;;;;;;5104876;27;45427;-79
2023/09/19 05:31:49;;;;;;;;;4.00;2.00;;;;;;;;5098564;27;46737;-79
2023/09/19 05:34:15;;;;;;;;;6.67;4.33;;;;;;;;5086725;27;45733;-80
2023/09/19 05:36:40;;;;;;;;;2.33;1.00;;;;;;;;5084241;27;45369;-80
2023/09/19 05:39:09;;;;;;;;;0.67;0.67;;;;;;;;5080556;27;44821;-82
2023/09/19 05:41:36;;;;;;;;;8.33;6.67;;;;;;;;5088710;27;45560;-80
2023/09/19 05:44:02;;;;;;;;;3.33;3.00;;;;;;;;5098700;27;45890;-81
2023/09/19 05:46:29;;;;;;;;;3.67;0.00;;;;;;;;5100655;27;45532;-80
2023/09/19 05:48:56;;;;;;;;;3.33;2.00;;;;;;;;5095577;27;45471;-81
2023/09/19 05:51:22;;;;;;;;;4.00;1.00;;;;;;;;5102484;27;45600;-80
2023/09/19 05:53:48;;;;;;;;;2.00;2.00;;;;;;;;5105380;27;45471;-79
2023/09/19 05:56:14;;;;;;;;;5.50;0.75;;;;;;;;5092512;27;45397;-80
2023/09/19 05:58:53;;;;;;;;;3.00;2.33;;;;;;;;5099729;27;45323;-84
2023/09/19 06:01:18;;;;;;;;;2.00;1.00;;;;;;;;5089663;27;47526;-82
2023/09/19 06:03:43;;;;;;;;;2.00;2.00;;;;;;;;5090864;27;45538;-80
2023/09/19 06:06:09;;;;;;;;;3.67;3.67;;;;;;;;5086487;27;45979;-81
2023/09/19 06:08:34;;;;;;;;;4.33;1.67;;;;;;;;5089417;27;45370;-80
2023/09/19 06:10:59;;;;;;;;;5.33;3.00;;;;;;;;5095843;27;45736;-80
2023/09/19 06:13:26;;;;;;;;;2.00;2.00;;;;;;;;5073712;27;47158;-81
2023/09/19 06:15:51;;;;;;;;;5.00;4.00;;;;;;;;5079681;27;45421;-79
2023/09/19 06:18:20;;;;;;;;;3.33;2.00;;;;;;;;5084134;27;45835;-82
2023/09/19 06:20:46;;;;;;;;;3.00;1.33;;;;;;;;5081398;27;45858;-80
2023/09/19 06:23:15;;;;;;;;;2.75;2.00;;;;;;;;5086367;27;47094;-81
2023/09/19 06:25:41;;;;;;;;;5.33;2.00;;;;;;;;5091633;27;45800;-82
2023/09/19 06:28:08;;;;;;;;;1.00;1.00;;;;;;;;5093890;27;45730;-81
2023/09/19 06:30:34;;;;;;;;;2.00;1.00;;;;;;;;5092877;27;45758;-82
2023/09/19 06:33:00;;;;;;;;;3.00;1.75;;;;;;;;5084242;27;47247;-81
2023/09/19 06:35:29;;;;;;;;;1.00;1.00;;;;;;;;5084373;27;45871;-79
2023/09/19 06:37:57;;;;;;;;;4.00;2.00;;;;;;;;5085383;27;45666;-80
2023/09/19 06:40:22;;;;;;;;;2.00;2.00;;;;;;;;5090469;27;45804;-82
2023/09/19 06:42:50;;;;;;;;;1.75;0.75;;;;;;;;5093628;27;47194;-79
2023/09/19 06:45:18;;;;;;;;;1.50;1.50;;;;;;;;5085375;27;45696;-80
2023/09/19 06:47:50;;;;;;;;;4.75;2.00;;;;;;;;5087207;27;45682;-79
2023/09/19 06:50:18;;;;;;;;;3.75;1.00;;;;;;;;5090301;27;47497;-79
2023/09/19 06:52:44;;;;;;;;;1.25;1.25;;;;;;;;5085029;27;47040;-79
2023/09/19 06:55:13;;;;;;;;;1.00;1.00;;;;;;;;5088591;27;45627;-81
2023/09/19 06:57:40;;;;;;;;;0.75;0.50;;;;;;;;5092180;27;45633;-79
2023/09/19 07:00:09;;;;;;;;;3.50;1.25;;;;;;;;5075590;27;46487;-79
2023/09/19 07:02:34;;;;;;;;;4.25;0.00;;;;;;;;5088101;27;46420;-79
2023/09/19 07:05:00;;;;;;;;;2.00;1.00;;;;;;;;5086159;27;45768;-79
2023/09/19 07:07:25;;;;;;;;;6.00;1.00;;;;;;;;5088445;27;45515;-80
2023/09/19 07:09:51;;;;;;;;;1.00;1.00;;;;;;;;5082739;27;45443;-79
2023/09/19 07:12:17;;;;;;;;;4.25;0.75;;;;;;;;5091198;27;46050;-79
2023/09/19 07:14:43;;;;;;;;;1.00;1.00;;;;;;;;5081431;27;45817;-80
2023/09/19 07:17:08;;;;;;;;;1.00;1.00;;;;;;;;5078126;27;45742;-80
2023/09/19 07:19:33;;;;;;;;;3.25;2.00;;;;;;;;5088843;27;45707;-80
2023/09/19 07:22:02;;;;;;;;;2.75;2.50;;;;;;;;5075682;27;45829;-81
2023/09/19 07:24:28;;;;;;;;;2.50;1.00;;;;;;;;5078714;27;46578;-79
2023/09/19 07:26:55;;;;;;;;;2.25;2.25;;;;;;;;5084817;27;45491;-80
2023/09/19 07:29:20;;;;;;;;;0.00;0.00;;;;;;;;5087752;27;45870;-81
2023/09/19 07:31:47;;;;;;;;;1.00;1.00;;;;;;;;5080165;27;46322;-79
2023/09/19 07:34:14;;;;;;;;;0.50;0.50;;;;;;;;5090037;27;45364;-80
2023/09/19 07:36:40;;;;;;;;;4.00;1.50;;;;;;;;5084197;27;45635;-79
2023/09/19 07:39:06;;;;;;;;;2.25;1.00;;;;;;;;5098516;27;45646;-80
2023/09/19 07:41:32;;;;;;;;;1.00;1.00;;;;;;;;5077583;27;45365;-78
2023/09/19 07:43:57;;;;;;;;;0.00;0.00;;;;;;;;5080804;27;45796;-80
2023/09/19 07:46:24;;;;;;;;;2.00;1.00;;;;;;;;5074450;27;45678;-79
2023/09/19 07:48:49;;;;;;;;;3.50;2.00;;;;;;;;5082553;27;46423;-79
2023/09/19 07:51:15;;;;;;;;;0.25;0.25;;;;;;;;5086795;27;47697;-80
2023/09/19 07:53:41;;;;;;;;;1.00;0.50;;;;;;;;5091261;27;45715;-79
2023/09/19 07:56:08;;;;;;;;;2.25;0.75;;;;;;;;5092486;27;45497;-81
2023/09/19 07:58:33;;;;;;;;;2.50;0.00;;;;;;;;5092402;27;45373;-81
2023/09/19 08:01:06;;;;;;;;;2.00;0.75;;;;;;;;5100211;27;45687;-80
2023/09/19 08:03:31;;;;;;;;;4.00;1.50;;;;;;;;5102213;27;45772;-80
2023/09/19 08:05:57;;;;;;;;;5.00;2.75;;;;;;;;5085513;27;45593;-82
2023/09/19 08:08:23;;;;;;;;;3.00;1.25;;;;;;;;5089465;27;45671;-82
2023/09/19 08:10:52;;;;;;;;;2.00;2.00;;;;;;;;5095783;27;45923;-80
2023/09/19 08:13:18;;;;;;;;;0.00;0.00;;;;;;;;5083874;27;45450;-78
2023/09/19 08:15:44;;;;;;;;;1.25;1.25;;;;;;;;5071588;27;45469;-80
2023/09/19 08:18:11;;;;;;;;;3.00;1.75;;;;;;;;5093902;27;45872;-82
2023/09/19 08:20:37;;;;;;;;;0.00;0.00;;;;;;;;5095696;27;45389;-80
2023/09/19 08:23:03;;;;;;;;;2.25;0.25;;;;;;;;5099838;27;45397;-80
2023/09/19 08:25:29;;;;;;;;;3.00;0.00;;;;;;;;5097330;27;45345;-80
2023/09/19 08:28:01;;;;;;;;;2.25;0.50;;;;;;;;5100725;27;45264;-81
2023/09/19 08:30:27;;;;;;;;;1.25;1.25;;;;;;;;5086379;27;46030;-80
2023/09/19 08:32:59;;;;;;;;;1.00;1.00;;;;;;;;5080619;27;45481;-78
2023/09/19 08:35:24;;;;;;;;;0.25;0.25;;;;;;;;5082188;27;45515;-79
2023/09/19 08:37:51;;;;;;;;;2.25;1.00;;;;;;;;5083321;27;45539;-79
2023/09/19 08:40:17;;;;;;;;;1.75;1.25;;;;;;;;5077691;27;45966;-80
2023/09/19 08:42:49;;;;;;;;;1.50;1.50;;;;;;;;5075424;27;45390;-80
2023/09/19 08:45:15;;;;;;;;;2.75;1.50;;;;;;;;5082285;27;45829;-80
2023/09/19 08:47:45;;;;;;;;;0.00;0.00;;;;;;;;5085126;27;45535;-80
2023/09/19 08:50:19;;;;;;;;;1.00;1.00;;;;;;;;5085105;27;45461;-79
2023/09/19 08:52:46;;;;;;;;;1.00;1.00;;;;;;;;5074861;27;45674;-80
2023/09/19 08:55:12;;;;;;;;;1.50;0.25;;;;;;;;5089759;27;45398;-81
2023/09/19 08:57:41;;;;;;;;;1.75;1.50;;;;;;;;5080232;27;45590;-72
2023/09/19 09:00:10;;;;;;;;;2.50;1.00;;;;;;;;5093303;27;45875;-73
2023/09/19 09:02:36;;;;;;;;;1.50;0.00;;;;;;;;5075926;27;45496;-75
2023/09/19 09:05:05;;;;;;;;;4.50;2.00;;;;;;;;5077054;27;45439;-74
2023/09/19 09:07:30;;;;;;;;;4.50;0.75;;;;;;;;5083572;27;45854;-72
2023/09/19 09:09:56;;;;;;;;;1.50;0.75;;;;;;;;5084115;27;45794;-74
2023/09/19 09:12:22;;;;;;;;;0.00;0.00;;;;;;;;5080138;27;45483;-74
2023/09/19 09:14:50;;;;;;;;;1.25;1.00;;;;;;;;5094297;27;45787;-74
2023/09/19 09:17:20;;;;;;;;;0.50;0.50;;;;;;;;5080222;27;45818;-76
2023/09/19 09:19:46;;;;;;;;;1.25;1.25;;;;;;;;5083032;27;48144;-72
2023/09/19 09:22:11;;;;;;;;;1.25;1.25;;;;;;;;5080906;27;45817;-74
2023/09/19 09:24:39;;;;;;;;;1.50;0.00;;;;;;;;5073889;27;45385;-73
2023/09/19 09:27:05;;;;;;;;;1.00;1.00;;;;;;;;5073538;27;46269;-74
2023/09/19 09:29:41;;;;;;;;;0.00;0.00;;;;;;;;5090407;27;45468;-72
2023/09/19 09:32:21;;;;;;;;;2.00;0.75;;;;;;;;5085914;27;45780;-72
2023/09/19 09:34:48;;;;;;;;;3.25;0.75;;;;;;;;5076307;27;45843;-74
2023/09/19 09:37:21;;;;;;;;;1.00;1.00;;;;;;;;5083403;27;46274;-74
2023/09/19 09:39:58;;;;;;;;;0.75;0.75;;;;;;;;5097992;27;46845;-74
2023/09/19 09:42:46;;;;;;;;;1.00;1.00;;;;;;;;5090263;27;45323;-73
2023/09/19 09:45:17;;;;;;;;;1.00;1.00;;;;;;;;5086065;27;45466;-74
2023/09/19 09:47:49;;;;;;;;;0.50;0.00;;;;;;;;5093215;27;45537;-74
2023/09/19 09:50:28;;;;;;;;;2.00;0.50;;;;;;;;5093096;27;45392;-80
2023/09/19 09:53:06;;;;;;;;;0.80;0.00;;;;;;;;5092669;27;45448;-75
2023/09/19 09:55:51;;;;;;;;;0.00;0.00;;;;;;;;5087303;27;45491;-75
2023/09/19 09:58:18;;;;;;;;;0.00;0.00;;;;;;;;5088018;27;45346;-77
2023/09/19 10:00:58;;;;;;;;;1.20;0.60;;;;;;;;5095069;27;45464;-75
2023/09/19 10:03:34;;;;;;;;;0.00;0.00;;;;;;;;5093880;27;45763;-74
2023/09/19 10:06:08;;;;;;;;;0.00;0.00;;;;;;;;5096331;27;45421;-75
2023/09/19 10:08:35;;;;;;;;;0.50;0.50;;;;;;;;5094360;27;45792;-79
2023/09/19 10:11:06;;;;;;;;;0.00;0.00;;;;;;;;5088303;27;45686;-75
2023/09/19 10:13:35;;;;;;;;;1.40;0.40;;;;;;;;5087537;27;45644;-74
2023/09/19 10:16:05;;;;;;;;;0.25;0.25;;;;;;;;5088923;27;45310;-77
2023/09/19 10:18:36;;;;;;;;;0.25;0.25;;;;;;;;5075766;27;45511;-76
2023/09/19 10:21:01;;;;;;;;;0.00;0.00;;;;;;;;5080072;27;46151;-75
2023/09/19 10:23:30;;;;;;;;;0.00;0.00;;;;;;;;5095598;27;45532;-74
2023/09/19 10:25:57;;;;;;;;;0.50;0.25;;;;;;;;5083286;27;46070;-75
2023/09/19 10:28:22;;;;;;;;;0.50;0.25;;;;;;;;5076149;27;46967;-74
2023/09/19 10:30:49;;;;;;;;;0.00;0.00;;;;;;;;5084374;27;45492;-74
2023/09/19 10:33:15;;;;;;;;;0.00;0.00;;;;;;;;5079934;27;45769;-74
2023/09/19 10:35:45;;;;;;;;;1.75;1.00;;;;;;;;5090037;27;45416;-75
2023/09/19 10:38:11;;;;;;;;;2.50;1.00;;;;;;;;5091266;27;45812;-75
2023/09/19 10:40:40;;;;;;;;;0.20;0.20;;;;;;;;5079145;27;45518;-74
2023/09/19 10:43:06;;;;;;;;;2.25;0.00;;;;;;;;5077986;27;45860;-73
2023/09/19 10:45:34;;;;;;;;;1.00;0.00;;;;;;;;5090301;27;45747;-74
2023/09/19 10:48:02;;;;;;;;;0.50;0.50;;;;;;;;5083626;27;45437;-74
2023/09/19 10:50:31;;;;;;;;;0.00;0.00;;;;;;;;5088651;27;45856;-74
2023/09/19 10:53:04;;;;;;;;;1.00;1.00;;;;;;;;5092381;27;45449;-73
2023/09/19 10:55:30;;;;;;;;;1.00;1.00;;;;;;;;5092543;27;45514;-73
2023/09/19 10:58:03;;;;;;;;;1.75;0.00;;;;;;;;5094337;27;45661;-75
2023/09/19 11:00:34;;;;;;;;;0.00;0.00;;;;;;;;5079748;27;46677;-74
2023/09/19 11:03:11;;;;;;;;;1.80;1.00;;;;;;;;5085482;27;45559;-73
2023/09/19 11:05:40;;;;;;;;;2.25;0.00;;;;;;;;5092543;27;45539;-74
2023/09/19 11:08:07;;;;;;;;;2.00;0.75;;;;;;;;5081562;27;46231;-74
2023/09/19 11:10:46;;;;;;;;;0.00;0.00;;;;;;;;5075413;27;46178;-73
2023/09/19 11:13:31;;;;;;;;;0.00;0.00;;;;;;;;5091819;27;45772;-74
2023/09/19 11:15:57;;;;;;;;;0.25;0.25;;;;;;;;5085614;27;45530;-74
2023/09/19 11:18:41;;;;;;;;;1.25;1.25;;;;;;;;5094282;27;46018;-74
2023/09/19 11:21:28;;;;;;;;;4.00;0.00;;;;;;;;5080640;27;46293;-74
2023/09/19 11:24:09;;;;;;;;;0.00;0.00;;;;;;;;5080743;27;45383;-74
2023/09/19 11:26:47;;;;;;;;;3.00;1.00;;;;;;;;5095325;27;45736;-75
2023/09/19 11:29:29;;;;;;;;;0.25;0.25;;;;;;;;5088549;27;45695;-72
2023/09/19 11:31:56;;;;;;;;;0.00;0.00;;;;;;;;5080545;27;45527;-79
2023/09/19 11:34:36;;;;;;;;;0.00;0.00;;;;;;;;5091777;27;45417;-75
2023/09/19 11:37:22;;;;;;;;;2.00;0.50;;;;;;;;5087118;27;45329;-74
2023/09/19 11:40:19;;;;;;;;;0.75;0.75;;;;;;;;5041508;27;45729;-73
2023/09/19 11:42:45;;;;;;;;;1.00;0.00;;;;;;;;5077226;27;46235;-73
2023/09/19 11:45:29;;;;;;;;;0.40;0.00;;;;;;;;5073985;27;45614;-73
2023/09/19 11:47:58;;;;;;;;;2.00;0.00;;;;;;;;5079596;27;45783;-72
2023/09/19 11:50:24;;;;;;;;;0.00;0.00;;;;;;;;5089805;27;45729;-72
2023/09/19 11:52:50;;;;;;;;;2.00;0.25;;;;;;;;5082792;27;46987;-81
2023/09/19 11:55:19;;;;;;;;;1.75;1.00;;;;;;;;5087363;27;45426;-79
2023/09/19 11:57:44;;;;;;;;;1.25;1.00;;;;;;;;5087710;27;45786;-80
2023/09/19 12:00:18;;;;;;;;;0.00;0.00;;;;;;;;5078229;27;45700;-78
2023/09/19 12:02:46;;;;;;;;;1.00;1.00;;;;;;;;5074744;27;46793;-77
2023/09/19 12:05:15;;;;;;;;;1.00;0.00;;;;;;;;5076412;27;46370;-78
2023/09/19 12:07:47;;;;;;;;;2.75;0.25;;;;;;;;5076820;27;45792;-79
2023/09/19 12:10:16;;;;;;;;;2.75;0.25;;;;;;;;5074327;27;47085;-78
2023/09/19 12:12:47;;;;;;;;;0.50;0.50;;;;;;;;5074848;27;48490;-82
2023/09/19 12:15:12;;;;;;;;;0.75;0.75;;;;;;;;5075736;27;44866;-78
2023/09/19 12:17:37;;;;;;;;;1.00;0.75;;;;;;;;5083783;27;45610;-78
2023/09/19 12:20:23;;;;;;;;;1.00;1.00;;;;;;;;5074292;27;45593;-78
2023/09/19 12:22:49;;;;;;;;;1.50;0.75;;;;;;;;5073576;27;46552;-79
2023/09/19 12:25:16;;;;;;;;;1.50;1.00;;;;;;;;5077556;27;45461;-79
2023/09/19 12:27:46;;;;;;;;;1.25;1.00;;;;;;;;5079504;27;45857;-81
2023/09/19 12:30:14;;;;;;;;;1.00;0.25;;;;;;;;5080275;27;46328;-80
2023/09/19 12:32:40;;;;;;;;;1.00;1.00;;;;;;;;5088873;27;46300;-78
2023/09/19 12:35:11;;;;;;;;;2.00;1.00;;;;;;;;5083258;27;45764;-79
2023/09/19 12:37:48;;;;;;;;;2.00;1.00;;;;;;;;5082347;27;45415;-78
2023/09/19 12:40:22;;;;;;;;;1.50;0.50;;;;;;;;5093221;27;46132;-79
2023/09/19 12:42:48;;;;;;;;;2.00;0.75;;;;;;;;5076849;27;45749;-79
2023/09/19 12:45:15;;;;;;;;;0.50;0.00;;;;;;;;5088569;27;45377;-78
2023/09/19 12:47:43;;;;;;;;;2.25;1.00;;;;;;;;5094621;27;45396;-80
2023/09/19 12:50:13;;;;;;;;;1.00;0.00;;;;;;;;5098143;27;45444;-80
2023/09/19 12:53:00;;;;;;;;;1.50;1.25;;;;;;;;5080531;27;46270;-74
2023/09/19 12:55:26;;;;;;;;;2.00;2.00;;;;;;;;5081069;27;45409;-72
2023/09/19 12:58:07;;;;;;;;;1.25;1.25;;;;;;;;5091678;27;45635;-72
2023/09/19 13:00:42;;;;;;;;;4.00;1.00;;;;;;;;5073527;27;46078;-72
2023/09/19 13:03:13;;;;;;;;;1.50;0.75;;;;;;;;5083802;27;45490;-72
2023/09/19 13:06:07;;;;;;;;;1.00;1.00;;;;;;;;5074032;27;45491;-71
2023/09/19 13:08:37;;;;;;;;;2.25;1.00;;;;;;;;5081169;27;45906;-71
2023/09/19 13:11:06;;;;;;;;;1.75;0.25;;;;;;;;5093383;27;45847;-72
2023/09/19 13:13:32;;;;;;;;;1.00;1.00;;;;;;;;5093594;27;46196;-71
2023/09/19 13:15:57;;;;;;;;;0.50;0.00;;;;;;;;5092043;27;45428;-72
2023/09/19 13:18:23;;;;;;;;;2.00;0.75;;;;;;;;5093118;27;45393;-73
2023/09/19 13:21:12;;;;;;;;;1.25;0.25;;;;;;;;5086339;27;45829;-73
2023/09/19 13:23:38;;;;;;;;;1.00;1.00;;;;;;;;5089532;27;46241;-72
2023/09/19 13:26:05;;;;;;;;;5.50;2.00;;;;;;;;5093567;27;45368;-72
2023/09/19 13:28:31;;;;;;;;;1.00;1.00;;;;;;;;5091226;27;45588;-73
2023/09/19 13:30:56;;;;;;;;;1.00;1.00;;;;;;;;5092866;27;45739;-72
2023/09/19 13:33:22;;;;;;;;;1.50;1.50;;;;;;;;5091944;27;45665;-73
2023/09/19 13:35:48;;;;;;;;;1.00;1.00;;;;;;;;5096226;27;45394;-71
2023/09/19 13:38:14;;;;;;;;;2.00;1.00;;;;;;;;5096544;27;45661;-73
2023/09/19 13:40:41;;;;;;;;;1.00;1.00;;;;;;;;5082617;27;45785;-74
2023/09/19 13:43:06;;;;;;;;;1.75;1.00;;;;;;;;5080303;27;45451;-72
2023/09/19 13:45:32;;;;;;;;;1.50;1.00;;;;;;;;5080058;27;45481;-73
2023/09/19 13:47:58;;;;;;;;;2.00;2.00;;;;;;;;5085026;27;45443;-71
2023/09/19 13:50:25;;;;;;;;;1.25;1.25;;;;;;;;5089360;27;45486;-73
2023/09/19 13:52:53;;;;;;;;;0.25;0.25;;;;;;;;5085237;27;46689;-74
2023/09/19 13:55:22;;;;;;;;;3.00;1.75;;;;;;;;5095348;27;45696;-70
2023/09/19 13:57:54;;;;;;;;;1.00;1.00;;;;;;;;5084521;27;45526;-72
2023/09/19 14:00:19;;;;;;;;;2.50;2.50;;;;;;;;5092790;27;45587;-73
2023/09/19 14:02:46;;;;;;;;;2.00;2.00;;;;;;;;5093351;27;47188;-71
2023/09/19 14:05:16;;;;;;;;;2.25;1.50;;;;;;;;5088593;27;46036;-71
2023/09/19 14:07:41;;;;;;;;;1.75;1.75;;;;;;;;5079310;27;45623;-71
2023/09/19 14:10:08;;;;;;;;;1.25;1.25;;;;;;;;5079011;27;45958;-72
2023/09/19 14:12:36;;;;;;;;;2.25;2.25;;;;;;;;5089836;27;45837;-72
2023/09/19 14:15:01;;;;;;;;;1.00;1.00;;;;;;;;5092727;27;45750;-73
2023/09/19 14:17:26;;;;;;;;;4.75;1.25;;;;;;;;5088906;27;45795;-73
2023/09/19 14:19:52;;;;;;;;;2.00;1.00;;;;;;;;5084772;27;45824;-71
2023/09/19 14:22:17;;;;;;;;;5.00;3.00;;;;;;;;5085167;27;45868;-72
2023/09/19 14:24:43;;;;;;;;;2.00;2.00;;;;;;;;5075859;27;45352;-74
2023/09/19 14:27:09;;;;;;;;;2.25;1.25;;;;;;;;5083953;27;45325;-72
2023/09/19 14:29:34;;;;;;;;;4.00;2.75;;;;;;;;5086891;27;45714;-72
2023/09/19 14:31:59;;;;;;;;;2.50;1.00;;;;;;;;5097125;27;46197;-74
2023/09/19 14:34:25;;;;;;;;;2.50;2.00;;;;;;;;5081767;27;45592;-73
2023/09/19 14:36:50;;;;;;;;;0.00;0.00;;;;;;;;5089242;27;45715;-76
2023/09/19 14:39:15;;;;;;;;;1.50;1.00;;;;;;;;5090456;27;45452;-74
2023/09/19 14:41:40;;;;;;;;;1.00;1.00;;;;;;;;5076925;27;47047;-75
2023/09/19 14:44:06;;;;;;;;;2.25;2.00;;;;;;;;5091631;27;45462;-76
2023/09/19 14:46:31;;;;;;;;;2.25;2.00;;;;;;;;5084793;27;45706;-75
2023/09/19 14:48:59;;;;;;;;;1.50;1.00;;;;;;;;5077012;27;45465;-76